Poplar Grove, IL (61065)

12:26 PM CST on November 27, 2014 (GMT -0600)
PG Elementary School | Change Station
CLOSE
Current Station
Personal Weather Station
Location: Poplar Grove, IL
Elevation: 906 ft
Nearby Weather Stations

Elev 906 ft 42.37 °N, 88.82 °W | Updated 1 minute ago

Overcast
Overcast
25.4 °F
Feels Like 25 °F
N
2.0
Wind Variable Wind from NW
Gusts 3.0 mph

Today
High -- | Low -- °F
--% Chance of Precip.
Yesterday
High -- | Low -- °F
Precip. -- in
7:00 AM 4:25 PM
Waxing Crescent, 31% visible
Pressure 30.42 in
Visibility 9.0 miles
Clouds Few 2300 ft
Mostly Cloudy 3000 ft
Mostly Cloudy 3900 ft
Windchill 25 °F
Dew Point 20 °F
Humidity 79%
Rainfall 0.00 in
Snow Depth Not available.
UV 1 out of 12
Pollen .10 out of 12
Air Quality Not available.
Flu Activity Not available.
METAR KRFD 271754Z 33012KT 9SM -SN FEW023 BKN030 BKN039 M04/M10 A3038 RMK AO2 SLP299 4/001 P0000 60000 T10441100 11039 21056 58002

More Conditions Fewer Conditions

Pressure 30.42 in
Visibility 9.0 miles
Clouds Few 2300 ft
Mostly Cloudy 3000 ft
Mostly Cloudy 3900 ft
Windchill 25 °F
Dew Point 20 °F
Humidity 79%
Rainfall 0.00 in
Snow Depth Not available.
UV 1 out of 12
Pollen .10 out of 12
Air Quality Not available.
Flu Activity Not available.
METAR KRFD 271754Z 33012KT 9SM -SN FEW023 BKN030 BKN039 M04/M10 A3038 RMK AO2 SLP299 4/001 P0000 60000 T10441100 11039 21056 58002

More Conditions Fewer Conditions

10-Day Weather Forecast

Almanac

Astronomy

Nov. 27, 2014 Rise Set
Actual Time
Civil Twilight
Nautical Twilight
Astronomical Twilight
Moon
Length of Visible Light
Length of Day
Tomorrow will be .
, % of the Moon is Illuminated

Today's Extremes

State Highs State Lows

Community

WunderPhotos

Upload Photos

1,774,079 photos uploaded!

WunderBlogs® & News

Nearby

Air Quality

  Air Quality AQ Index Pollutant
Not available.

Snow Depth

Station Depth Elevation

Earthquake Activity

City Distance Mag. Time & Date
Minimum magnitude displayed is 2.5.

Coastal Water Temperatures

Place Temperature

Nearby Weather Stations